• Join FlightAware (Why Join?)
  • Login
  • US Flag 
12:57PM EDT


 

Airport Tracker/Info


-or-


 

Live Flight TrackerFlight Track Log ✈ UCA597 ✈ 02-Nov-2013 ✈ KIAD - KBGM

Flight Track Log - Related Links

Times and Time Zones

All times are in EDT time to prevent confusion due to time zone crossing. See the UCA597 flight status page for this flight to view local times or setup timezone preferences in your user account.

Time Position Orientation Groundspeed Altitude Reporting Facility
EDT Latitude Longitude Course Direction KTS MPH feet Rate Location/Type
05:45PM 38.9833 -77.4500 19° North 134 154 2,100  Level Potomac TRACON
05:46PM 39.0167 -77.4667 339° North 150 173 3,600 1,320 Climbing Potomac TRACON
05:48PM 39.1064 -77.5175 336° Northwest 154 177 6,400 1,200 Climbing Washington Center
05:49PM 39.1586 -77.5161 North 162 186 7,500 1,140 Climbing Washington Center
05:50PM 39.2693 -77.3204 19° North  Level Estimated
05:50PM 39.2128 -77.5150 North 172 198 8,700  Level Washington Center
05:51PM 39.2711 -77.5192 357° North 195 224 9,700 960 Climbing Washington Center
05:52PM 39.3317 -77.5128 North 206 237 10,700 900 Climbing Washington Center
05:53PM 39.3944 -77.5008 North 216 249 11,600 900 Climbing Washington Center
05:54PM 39.4886 -77.4833 North 238 274 13,100 900 Climbing New York Center
05:55PM 39.5478 -77.4728 North 220 253 14,000 1,020 Climbing New York Center
05:56PM 39.6089 -77.4597 North 201 231 15,200 960 Climbing New York Center
05:57PM 39.6614 -77.4539 North 208 239 16,000 900 Climbing New York Center
05:58PM 39.7303 -77.4522 North 221 254 17,000 480 Climbing New York Center
05:59PM 39.7972 -77.4506 North 231 266 17,000  Level New York Center
06:00PM 39.8703 -77.4494 North 253 291 17,000  Level New York Center
06:01PM 39.9411 -77.4481 North 259 298 17,000  Level New York Center
06:02PM 40.0142 -77.4469 North 259 298 17,000  Level New York Center
06:03PM 40.0850 -77.4131 20° North 259 298 17,000  Level New York Center
06:04PM 40.1519 -77.3733 24° Northeast 273 314 17,000  Level New York Center
06:05PM 40.2231 -77.3311 24° Northeast 273 314 17,000  Level New York Center
06:06PM 40.2878 -77.2881 27° Northeast 263 303 17,000  Level New York Center
06:07PM 40.3567 -77.2511 22° Northeast 263 303 17,000  Level New York Center
06:08PM 40.4256 -77.2111 24° Northeast 263 303 17,000  Level New York Center
06:09PM 40.4922 -77.1708 25° Northeast 263 303 17,000  Level New York Center
06:10PM 40.5614 -77.1281 25° Northeast 263 303 17,000  Level New York Center
06:11PM 40.6281 -77.0878 25° Northeast 263 303 17,000  Level New York Center
06:12PM 40.6883 -77.0522 24° Northeast 263 303 17,000  Level New York Center
06:13PM 40.7553 -77.0119 24° Northeast 263 303 17,000  Level New York Center
06:14PM 40.8219 -76.9714 25° Northeast 263 303 17,000 -60 Level New York Center
06:15PM 40.8950 -76.9258 25° Northeast 263 303 16,900 -420 Descending New York Center
06:16PM 40.9556 -76.8872 26° Northeast 263 303 16,200 -780 Descending New York Center
06:17PM 41.0244 -76.8439 25° Northeast 263 303 15,400 -840 Descending New York Center
06:18PM 41.0953 -76.8036 23° Northeast 263 303 14,600 -840 Descending New York Center
06:19PM 41.1639 -76.7628 24° Northeast 263 303 13,800 -840 Descending New York Center
06:20PM 41.2331 -76.7164 27° Northeast 263 303 13,000 -900 Descending New York Center
06:21PM 41.3103 -76.6681 25° Northeast 263 303 12,100 -900 Descending New York Center
06:22PM 41.3706 -76.6292 26° Northeast 268 308 11,300 -600 Descending New York Center
06:23PM 41.4436 -76.5856 24° Northeast 262 302 11,000 -180 Descending New York Center
06:24PM 41.5039 -76.5464 26° Northeast 251 289 11,000  Level New York Center
06:25PM 41.5617 -76.5128 24° Northeast 236 272 11,000 -180 Level New York Center
06:26PM 41.6133 -76.4783 26° Northeast 230 265 10,700 -600 Descending New York Center
06:27PM 41.6733 -76.4417 25° Northeast 230 265 9,900 -900 Descending New York Center
06:28PM 41.7419 -76.4003 24° Northeast 236 272 8,900 -1,200 Descending New York Center
06:29PM 41.8064 -76.3583 26° Northeast 244 281 7,600 -1,440 Descending New York Center
06:30PM 41.8667 -76.3189 26° Northeast 249 287 6,100 -1,560 Descending New York Center
06:31PM 41.9108 -76.2642 43° Northeast 243 280 4,500 -1,080 Descending New York Center
06:32PM 41.9333 -76.1794 70° East 235 270 4,000 -300 Descending New York Center
06:33PM 41.9578 -76.1006 67° East 214 246 4,000  Level New York Center
06:34PM 41.9714 -76.0292 76° East 202 232 4,000  Level New York Center
06:35PM 41.9831 -75.9547 78° East 197 227 4,000  Level New York Center
06:36PM 41.9922 -75.8886 79° East 197 227 4,000  Level New York Center
06:37PM 42.0314 -75.8442 40° Northeast 181 208 4,000 -120 Level New York Center
06:38PM 42.0761 -75.8728 335° Northwest 142 163 3,800 -240 Descending New York Center
06:40PM 42.0803 -75.9659 274° West  Level FlightAware Approximate
06:47PM 42.2000 -75.9667 North  Level FlightAware Approximate